Bay Point, New York
Current Conditions -  °F | °C
As of 5:02 AM on Thursday 23 Oct 2014 (Local Time) from KFOK Reporting Station
Light Rain Light Rain  
Wind Chill: 11°   Ceiling: 1800
Heat Index: 11°   Visibility: 9mi
Dew Point:   Wind: 15mph
Humidity: 89%   Direction: 10°N
Pressure: 29.63"   Gusts: 29mph
Location:  40.9692°N, 72.306°W
Report Text: KFOK 230902Z AUTO 01013G25KT 9SM -RA BKN018 BKN050 OVC070 11/09 A2963 RMK AO2 P0000 T01060089 TSNO
Loading
Personal Weather Stations






























Interactive Weather Map
Tropical Storm Tracking
New forecast layout! Learn more

10-Day Weather Forecast

Advertisements
Track Severe Weather on mobile